sensor_id;sensor_type;location;lat;lon;timestamp;temperature;humidity
23703;DHT22;12030;50.376;8.762;2023-09-07T00:01:45;14.50;99.90
23703;DHT22;12030;50.376;8.762;2023-09-07T00:04:11;14.50;99.90
23703;DHT22;12030;50.376;8.762;2023-09-07T00:06:38;14.50;99.90
23703;DHT22;12030;50.376;8.762;2023-09-07T00:09:03;14.40;99.90
23703;DHT22;12030;50.376;8.762;2023-09-07T00:11:31;14.40;99.90
23703;DHT22;12030;50.376;8.762;2023-09-07T00:13:58;14.40;99.90
23703;DHT22;12030;50.376;8.762;2023-09-07T00:16:24;14.40;99.90
23703;DHT22;12030;50.376;8.762;2023-09-07T00:18:50;14.40;99.90
23703;DHT22;12030;50.376;8.762;2023-09-07T00:21:16;14.40;99.90
23703;DHT22;12030;50.376;8.762;2023-09-07T00:23:41;14.40;99.90
23703;DHT22;12030;50.376;8.762;2023-09-07T00:26:07;14.30;99.90
23703;DHT22;12030;50.376;8.762;2023-09-07T00:28:33;14.40;99.90
23703;DHT22;12030;50.376;8.762;2023-09-07T00:30:59;14.40;99.90
23703;DHT22;12030;50.376;8.762;2023-09-07T00:33:24;14.40;99.90
23703;DHT22;12030;50.376;8.762;2023-09-07T00:35:50;14.40;99.90
23703;DHT22;12030;50.376;8.762;2023-09-07T00:38:15;14.40;99.90
23703;DHT22;12030;50.376;8.762;2023-09-07T00:40:44;14.40;99.90
23703;DHT22;12030;50.376;8.762;2023-09-07T00:43:12;14.40;99.90
23703;DHT22;12030;50.376;8.762;2023-09-07T00:45:39;14.40;99.90
23703;DHT22;12030;50.376;8.762;2023-09-07T00:48:05;14.40;99.90
23703;DHT22;12030;50.376;8.762;2023-09-07T00:50:31;14.40;99.90
23703;DHT22;12030;50.376;8.762;2023-09-07T00:52:58;14.50;99.90
23703;DHT22;12030;50.376;8.762;2023-09-07T00:55:27;14.50;99.90
23703;DHT22;12030;50.376;8.762;2023-09-07T00:57:52;14.40;99.90
23703;DHT22;12030;50.376;8.762;2023-09-07T01:00:18;14.40;99.90
23703;DHT22;12030;50.376;8.762;2023-09-07T01:02:44;14.40;99.90
23703;DHT22;12030;50.376;8.762;2023-09-07T01:05:10;14.40;99.90
23703;DHT22;12030;50.376;8.762;2023-09-07T01:07:43;14.50;99.90
23703;DHT22;12030;50.376;8.762;2023-09-07T01:10:10;14.50;99.90
23703;DHT22;12030;50.376;8.762;2023-09-07T01:12:36;14.60;99.90
23703;DHT22;12030;50.376;8.762;2023-09-07T01:15:02;14.70;99.90
23703;DHT22;12030;50.376;8.762;2023-09-07T01:17:28;14.70;99.90
23703;DHT22;12030;50.376;8.762;2023-09-07T01:19:57;14.70;99.90
23703;DHT22;12030;50.376;8.762;2023-09-07T01:22:24;14.70;99.90
23703;DHT22;12030;50.376;8.762;2023-09-07T01:24:50;14.70;99.90
23703;DHT22;12030;50.376;8.762;2023-09-07T01:27:18;14.60;99.90
23703;DHT22;12030;50.376;8.762;2023-09-07T01:29:43;14.60;99.90
23703;DHT22;12030;50.376;8.762;2023-09-07T01:32:09;14.70;99.90
23703;DHT22;12030;50.376;8.762;2023-09-07T01:34:39;14.70;99.90
23703;DHT22;12030;50.376;8.762;2023-09-07T01:37:04;14.60;99.90
23703;DHT22;12030;50.376;8.762;2023-09-07T01:39:30;14.60;99.90
23703;DHT22;12030;50.376;8.762;2023-09-07T01:41:55;14.50;99.90
23703;DHT22;12030;50.376;8.762;2023-09-07T01:44:21;14.40;99.90
23703;DHT22;12030;50.376;8.762;2023-09-07T01:46:46;14.40;99.90
23703;DHT22;12030;50.376;8.762;2023-09-07T01:49:12;14.30;99.90
23703;DHT22;12030;50.376;8.762;2023-09-07T01:51:37;14.20;99.90
23703;DHT22;12030;50.376;8.762;2023-09-07T01:54:03;14.20;99.90
23703;DHT22;12030;50.376;8.762;2023-09-07T01:56:29;14.20;99.90
23703;DHT22;12030;50.376;8.762;2023-09-07T01:58:54;14.30;99.90
23703;DHT22;12030;50.376;8.762;2023-09-07T02:01:27;14.20;99.90
23703;DHT22;12030;50.376;8.762;2023-09-07T02:03:55;14.30;99.90
23703;DHT22;12030;50.376;8.762;2023-09-07T02:06:20;14.30;99.90
23703;DHT22;12030;50.376;8.762;2023-09-07T02:08:46;14.30;99.90
23703;DHT22;12030;50.376;8.762;2023-09-07T02:11:12;14.30;99.90
23703;DHT22;12030;50.376;8.762;2023-09-07T02:13:37;14.30;99.90
23703;DHT22;12030;50.376;8.762;2023-09-07T02:16:04;14.20;99.90
23703;DHT22;12030;50.376;8.762;2023-09-07T02:18:31;14.20;99.90
23703;DHT22;12030;50.376;8.762;2023-09-07T02:21:04;14.30;99.90
23703;DHT22;12030;50.376;8.762;2023-09-07T02:23:33;14.30;99.90
23703;DHT22;12030;50.376;8.762;2023-09-07T02:25:59;14.50;99.90
23703;DHT22;12030;50.376;8.762;2023-09-07T02:28:25;14.50;99.90
23703;DHT22;12030;50.376;8.762;2023-09-07T02:30:54;14.70;99.90
23703;DHT22;12030;50.376;8.762;2023-09-07T02:33:19;14.70;99.90
23703;DHT22;12030;50.376;8.762;2023-09-07T02:35:47;14.70;99.90
23703;DHT22;12030;50.376;8.762;2023-09-07T02:38:13;14.60;99.90
23703;DHT22;12030;50.376;8.762;2023-09-07T02:40:42;14.50;99.90
23703;DHT22;12030;50.376;8.762;2023-09-07T02:43:09;14.50;99.90
23703;DHT22;12030;50.376;8.762;2023-09-07T02:45:34;14.60;99.90
23703;DHT22;12030;50.376;8.762;2023-09-07T02:48:00;14.60;99.90
23703;DHT22;12030;50.376;8.762;2023-09-07T02:50:25;14.50;99.90
23703;DHT22;12030;50.376;8.762;2023-09-07T02:52:51;14.50;99.90
23703;DHT22;12030;50.376;8.762;2023-09-07T02:55:16;14.50;99.90
23703;DHT22;12030;50.376;8.762;2023-09-07T02:57:42;14.60;99.90
23703;DHT22;12030;50.376;8.762;2023-09-07T03:00:08;14.60;99.90
23703;DHT22;12030;50.376;8.762;2023-09-07T03:02:34;14.50;99.90
23703;DHT22;12030;50.376;8.762;2023-09-07T03:05:01;14.50;99.90
23703;DHT22;12030;50.376;8.762;2023-09-07T03:07:27;14.50;99.90
23703;DHT22;12030;50.376;8.762;2023-09-07T03:09:53;14.60;99.90
23703;DHT22;12030;50.376;8.762;2023-09-07T03:12:18;14.50;99.90
23703;DHT22;12030;50.376;8.762;2023-09-07T03:14:44;14.50;99.90
23703;DHT22;12030;50.376;8.762;2023-09-07T03:17:10;14.50;99.90
23703;DHT22;12030;50.376;8.762;2023-09-07T03:19:36;14.50;99.90
23703;DHT22;12030;50.376;8.762;2023-09-07T03:22:01;14.50;99.90
23703;DHT22;12030;50.376;8.762;2023-09-07T03:24:28;14.50;99.90
23703;DHT22;12030;50.376;8.762;2023-09-07T03:26:54;14.60;99.90
23703;DHT22;12030;50.376;8.762;2023-09-07T03:29:19;14.60;99.90
23703;DHT22;12030;50.376;8.762;2023-09-07T03:31:45;14.50;99.90
23703;DHT22;12030;50.376;8.762;2023-09-07T03:34:11;14.50;99.90
23703;DHT22;12030;50.376;8.762;2023-09-07T03:36:36;14.50;99.90
23703;DHT22;12030;50.376;8.762;2023-09-07T03:39:02;14.40;99.90
23703;DHT22;12030;50.376;8.762;2023-09-07T03:41:27;14.40;99.90
23703;DHT22;12030;50.376;8.762;2023-09-07T03:43:56;14.30;99.90
23703;DHT22;12030;50.376;8.762;2023-09-07T03:46:21;14.20;99.90
23703;DHT22;12030;50.376;8.762;2023-09-07T03:48:47;14.10;99.90
23703;DHT22;12030;50.376;8.762;2023-09-07T03:51:12;14.00;99.90
23703;DHT22;12030;50.376;8.762;2023-09-07T03:53:38;14.00;99.90
23703;DHT22;12030;50.376;8.762;2023-09-07T03:56:04;14.00;99.90
23703;DHT22;12030;50.376;8.762;2023-09-07T03:58:30;14.00;99.90
23703;DHT22;12030;50.376;8.762;2023-09-07T04:00:58;14.00;99.90
23703;DHT22;12030;50.376;8.762;2023-09-07T04:03:25;13.90;99.90
23703;DHT22;12030;50.376;8.762;2023-09-07T04:05:51;14.00;99.90
23703;DHT22;12030;50.376;8.762;2023-09-07T04:08:16;14.00;99.90
23703;DHT22;12030;50.376;8.762;2023-09-07T04:10:42;14.00;99.90
23703;DHT22;12030;50.376;8.762;2023-09-07T04:13:07;14.10;99.90
23703;DHT22;12030;50.376;8.762;2023-09-07T04:15:34;14.10;99.90
23703;DHT22;12030;50.376;8.762;2023-09-07T04:18:06;14.20;99.90
23703;DHT22;12030;50.376;8.762;2023-09-07T04:20:31;14.20;99.90
23703;DHT22;12030;50.376;8.762;2023-09-07T04:22:57;14.20;99.90
23703;DHT22;12030;50.376;8.762;2023-09-07T04:25:23;14.20;99.90
23703;DHT22;12030;50.376;8.762;2023-09-07T04:27:48;14.10;99.90
23703;DHT22;12030;50.376;8.762;2023-09-07T04:30:14;14.10;99.90
23703;DHT22;12030;50.376;8.762;2023-09-07T04:32:39;14.10;99.90
23703;DHT22;12030;50.376;8.762;2023-09-07T04:35:05;14.00;99.90
23703;DHT22;12030;50.376;8.762;2023-09-07T04:37:31;14.00;99.90
23703;DHT22;12030;50.376;8.762;2023-09-07T04:39:56;13.90;99.90
23703;DHT22;12030;50.376;8.762;2023-09-07T04:42:22;14.00;99.90
23703;DHT22;12030;50.376;8.762;2023-09-07T04:44:47;13.90;99.90
23703;DHT22;12030;50.376;8.762;2023-09-07T04:47:14;13.90;99.90
23703;DHT22;12030;50.376;8.762;2023-09-07T04:49:40;13.90;99.90
23703;DHT22;12030;50.376;8.762;2023-09-07T04:52:06;13.80;99.90
23703;DHT22;12030;50.376;8.762;2023-09-07T04:54:32;13.70;99.90
23703;DHT22;12030;50.376;8.762;2023-09-07T04:56:58;13.60;99.90
23703;DHT22;12030;50.376;8.762;2023-09-07T04:59:23;13.50;99.90
23703;DHT22;12030;50.376;8.762;2023-09-07T05:01:49;13.50;99.90
23703;DHT22;12030;50.376;8.762;2023-09-07T05:04:14;13.50;99.90
23703;DHT22;12030;50.376;8.762;2023-09-07T05:06:40;13.40;99.90
23703;DHT22;12030;50.376;8.762;2023-09-07T05:09:07;13.40;99.90
23703;DHT22;12030;50.376;8.762;2023-09-07T05:11:32;13.40;99.90
23703;DHT22;12030;50.376;8.762;2023-09-07T05:14:00;13.50;99.90
23703;DHT22;12030;50.376;8.762;2023-09-07T05:16:27;13.50;99.90
23703;DHT22;12030;50.376;8.762;2023-09-07T05:18:52;13.50;99.90
23703;DHT22;12030;50.376;8.762;2023-09-07T05:21:18;13.50;99.90
23703;DHT22;12030;50.376;8.762;2023-09-07T05:23:43;13.60;99.90
23703;DHT22;12030;50.376;8.762;2023-09-07T05:26:09;13.60;99.90
23703;DHT22;12030;50.376;8.762;2023-09-07T05:28:34;13.70;99.90
23703;DHT22;12030;50.376;8.762;2023-09-07T05:31:00;13.70;99.90
23703;DHT22;12030;50.376;8.762;2023-09-07T05:33:26;13.80;99.90
23703;DHT22;12030;50.376;8.762;2023-09-07T05:35:51;13.80;99.90
23703;DHT22;12030;50.376;8.762;2023-09-07T05:38:17;13.90;99.90
23703;DHT22;12030;50.376;8.762;2023-09-07T05:40:43;14.00;99.90
23703;DHT22;12030;50.376;8.762;2023-09-07T05:43:10;14.00;99.90
23703;DHT22;12030;50.376;8.762;2023-09-07T05:45:38;14.10;99.90
23703;DHT22;12030;50.376;8.762;2023-09-07T05:48:04;14.20;99.90
23703;DHT22;12030;50.376;8.762;2023-09-07T05:50:29;14.30;99.90
23703;DHT22;12030;50.376;8.762;2023-09-07T05:52:55;14.30;99.90
23703;DHT22;12030;50.376;8.762;2023-09-07T05:55:21;14.40;99.90
23703;DHT22;12030;50.376;8.762;2023-09-07T05:57:46;14.40;99.90
23703;DHT22;12030;50.376;8.762;2023-09-07T06:00:12;14.50;99.90
23703;DHT22;12030;50.376;8.762;2023-09-07T06:02:38;14.60;99.90
23703;DHT22;12030;50.376;8.762;2023-09-07T06:05:04;14.60;99.90
23703;DHT22;12030;50.376;8.762;2023-09-07T06:07:30;14.70;99.90
23703;DHT22;12030;50.376;8.762;2023-09-07T06:09:56;14.80;99.90
23703;DHT22;12030;50.376;8.762;2023-09-07T06:12:24;14.90;99.90
23703;DHT22;12030;50.376;8.762;2023-09-07T06:14:49;15.00;99.90
23703;DHT22;12030;50.376;8.762;2023-09-07T06:17:15;15.10;99.90
23703;DHT22;12030;50.376;8.762;2023-09-07T06:19:40;15.20;99.90
23703;DHT22;12030;50.376;8.762;2023-09-07T06:22:06;15.20;99.90
23703;DHT22;12030;50.376;8.762;2023-09-07T06:24:31;15.40;99.90
23703;DHT22;12030;50.376;8.762;2023-09-07T06:26:57;15.50;99.90
23703;DHT22;12030;50.376;8.762;2023-09-07T06:29:22;15.50;99.90
23703;DHT22;12030;50.376;8.762;2023-09-07T06:31:48;15.60;99.90
23703;DHT22;12030;50.376;8.762;2023-09-07T06:34:15;15.70;99.90
23703;DHT22;12030;50.376;8.762;2023-09-07T06:36:41;15.70;99.90
23703;DHT22;12030;50.376;8.762;2023-09-07T06:39:06;15.80;99.90
23703;DHT22;12030;50.376;8.762;2023-09-07T06:41:32;15.80;99.90
23703;DHT22;12030;50.376;8.762;2023-09-07T06:43:58;16.00;99.90
23703;DHT22;12030;50.376;8.762;2023-09-07T06:46:23;15.90;99.90
23703;DHT22;12030;50.376;8.762;2023-09-07T06:48:48;16.00;99.90
23703;DHT22;12030;50.376;8.762;2023-09-07T06:51:14;16.10;99.90
23703;DHT22;12030;50.376;8.762;2023-09-07T06:53:40;16.10;99.90
23703;DHT22;12030;50.376;8.762;2023-09-07T06:56:06;16.20;99.90
23703;DHT22;12030;50.376;8.762;2023-09-07T06:58:32;16.30;99.90
23703;DHT22;12030;50.376;8.762;2023-09-07T07:00:59;16.40;99.90
23703;DHT22;12030;50.376;8.762;2023-09-07T07:03:27;16.50;99.90
23703;DHT22;12030;50.376;8.762;2023-09-07T07:05:52;16.60;99.90
23703;DHT22;12030;50.376;8.762;2023-09-07T07:08:18;16.70;99.90
23703;DHT22;12030;50.376;8.762;2023-09-07T07:10:43;16.80;99.90
23703;DHT22;12030;50.376;8.762;2023-09-07T07:13:09;16.90;99.90
23703;DHT22;12030;50.376;8.762;2023-09-07T07:15:35;17.00;99.90
23703;DHT22;12030;50.376;8.762;2023-09-07T07:18:01;17.10;99.90
23703;DHT22;12030;50.376;8.762;2023-09-07T07:20:27;17.20;99.90
23703;DHT22;12030;50.376;8.762;2023-09-07T07:22:52;17.30;99.90
23703;DHT22;12030;50.376;8.762;2023-09-07T07:25:18;17.40;99.90
23703;DHT22;12030;50.376;8.762;2023-09-07T07:27:43;17.50;99.90
23703;DHT22;12030;50.376;8.762;2023-09-07T07:30:10;17.60;99.90
23703;DHT22;12030;50.376;8.762;2023-09-07T07:32:36;17.70;99.90
23703;DHT22;12030;50.376;8.762;2023-09-07T07:35:02;17.90;99.90
23703;DHT22;12030;50.376;8.762;2023-09-07T07:37:28;17.90;99.90
23703;DHT22;12030;50.376;8.762;2023-09-07T07:39:54;18.00;99.90
23703;DHT22;12030;50.376;8.762;2023-09-07T07:42:19;18.20;99.90
23703;DHT22;12030;50.376;8.762;2023-09-07T07:44:46;18.20;99.90
23703;DHT22;12030;50.376;8.762;2023-09-07T07:47:11;18.40;99.90
23703;DHT22;12030;50.376;8.762;2023-09-07T07:49:37;18.50;99.90
23703;DHT22;12030;50.376;8.762;2023-09-07T07:52:02;18.60;99.90
23703;DHT22;12030;50.376;8.762;2023-09-07T07:54:28;18.70;99.90
23703;DHT22;12030;50.376;8.762;2023-09-07T07:56:54;18.80;99.90
23703;DHT22;12030;50.376;8.762;2023-09-07T07:59:20;18.90;99.90
23703;DHT22;12030;50.376;8.762;2023-09-07T08:01:45;19.10;99.90
23703;DHT22;12030;50.376;8.762;2023-09-07T08:04:11;19.30;99.90
23703;DHT22;12030;50.376;8.762;2023-09-07T08:06:36;19.40;99.90
23703;DHT22;12030;50.376;8.762;2023-09-07T08:09:02;19.50;99.90
23703;DHT22;12030;50.376;8.762;2023-09-07T08:11:28;19.50;99.90
23703;DHT22;12030;50.376;8.762;2023-09-07T08:13:53;19.70;99.90
23703;DHT22;12030;50.376;8.762;2023-09-07T08:16:19;19.90;99.90
23703;DHT22;12030;50.376;8.762;2023-09-07T08:18:45;19.90;99.90
23703;DHT22;12030;50.376;8.762;2023-09-07T08:21:11;20.00;99.90
23703;DHT22;12030;50.376;8.762;2023-09-07T08:23:37;20.10;99.90
23703;DHT22;12030;50.376;8.762;2023-09-07T08:26:03;20.20;99.90
23703;DHT22;12030;50.376;8.762;2023-09-07T08:28:28;20.40;99.90
23703;DHT22;12030;50.376;8.762;2023-09-07T08:30:54;20.50;99.90
23703;DHT22;12030;50.376;8.762;2023-09-07T08:33:23;20.60;99.90
23703;DHT22;12030;50.376;8.762;2023-09-07T08:35:56;20.70;99.90
23703;DHT22;12030;50.376;8.762;2023-09-07T08:38:22;20.90;99.90
23703;DHT22;12030;50.376;8.762;2023-09-07T08:40:53;20.90;99.90
23703;DHT22;12030;50.376;8.762;2023-09-07T08:43:19;21.10;99.90
23703;DHT22;12030;50.376;8.762;2023-09-07T08:45:51;21.30;99.90
23703;DHT22;12030;50.376;8.762;2023-09-07T08:48:24;21.40;99.90
23703;DHT22;12030;50.376;8.762;2023-09-07T08:50:50;21.50;99.90
23703;DHT22;12030;50.376;8.762;2023-09-07T08:53:18;21.60;99.90
23703;DHT22;12030;50.376;8.762;2023-09-07T08:55:44;21.70;99.90
23703;DHT22;12030;50.376;8.762;2023-09-07T08:58:10;21.80;99.90
23703;DHT22;12030;50.376;8.762;2023-09-07T09:00:37;21.90;99.90
23703;DHT22;12030;50.376;8.762;2023-09-07T09:03:03;22.10;99.90
23703;DHT22;12030;50.376;8.762;2023-09-07T09:05:30;22.20;99.90
23703;DHT22;12030;50.376;8.762;2023-09-07T09:08:03;22.30;99.90
23703;DHT22;12030;50.376;8.762;2023-09-07T09:10:29;22.30;99.90
23703;DHT22;12030;50.376;8.762;2023-09-07T09:12:55;22.40;99.90
23703;DHT22;12030;50.376;8.762;2023-09-07T09:15:22;22.50;99.90
23703;DHT22;12030;50.376;8.762;2023-09-07T09:17:47;22.60;99.90
23703;DHT22;12030;50.376;8.762;2023-09-07T09:20:20;22.70;99.90
23703;DHT22;12030;50.376;8.762;2023-09-07T09:22:49;22.80;99.90
23703;DHT22;12030;50.376;8.762;2023-09-07T09:25:15;22.90;99.90
23703;DHT22;12030;50.376;8.762;2023-09-07T09:27:40;23.00;99.90
23703;DHT22;12030;50.376;8.762;2023-09-07T09:30:07;23.10;99.90
23703;DHT22;12030;50.376;8.762;2023-09-07T09:32:32;23.20;99.90
23703;DHT22;12030;50.376;8.762;2023-09-07T09:34:59;23.30;99.90
23703;DHT22;12030;50.376;8.762;2023-09-07T09:37:28;23.40;99.90
23703;DHT22;12030;50.376;8.762;2023-09-07T09:39:54;23.50;99.90
23703;DHT22;12030;50.376;8.762;2023-09-07T09:42:22;23.60;99.90
23703;DHT22;12030;50.376;8.762;2023-09-07T09:44:49;23.70;99.90
23703;DHT22;12030;50.376;8.762;2023-09-07T09:47:16;23.70;99.90
23703;DHT22;12030;50.376;8.762;2023-09-07T09:49:43;23.80;99.90
23703;DHT22;12030;50.376;8.762;2023-09-07T09:52:08;23.90;99.90
23703;DHT22;12030;50.376;8.762;2023-09-07T09:54:35;24.00;99.90
23703;DHT22;12030;50.376;8.762;2023-09-07T09:57:01;24.10;99.90
23703;DHT22;12030;50.376;8.762;2023-09-07T09:59:27;24.20;99.90
23703;DHT22;12030;50.376;8.762;2023-09-07T10:01:53;24.20;99.90
23703;DHT22;12030;50.376;8.762;2023-09-07T10:04:19;24.30;99.90
23703;DHT22;12030;50.376;8.762;2023-09-07T10:06:58;24.40;99.90
23703;DHT22;12030;50.376;8.762;2023-09-07T10:09:29;24.50;99.90
23703;DHT22;12030;50.376;8.762;2023-09-07T10:11:57;24.60;99.90
23703;DHT22;12030;50.376;8.762;2023-09-07T10:14:25;24.60;99.90
23703;DHT22;12030;50.376;8.762;2023-09-07T10:16:54;24.80;99.90
23703;DHT22;12030;50.376;8.762;2023-09-07T10:19:25;24.80;99.90
23703;DHT22;12030;50.376;8.762;2023-09-07T10:21:53;24.90;99.90
23703;DHT22;12030;50.376;8.762;2023-09-07T10:24:34;25.00;99.90
23703;DHT22;12030;50.376;8.762;2023-09-07T10:27:05;25.00;99.90
23703;DHT22;12030;50.376;8.762;2023-09-07T10:29:45;25.10;99.90
23703;DHT22;12030;50.376;8.762;2023-09-07T10:32:11;25.20;99.90
23703;DHT22;12030;50.376;8.762;2023-09-07T10:34:38;25.30;99.90
23703;DHT22;12030;50.376;8.762;2023-09-07T10:37:05;25.30;99.90
23703;DHT22;12030;50.376;8.762;2023-09-07T10:39:32;25.40;99.90
23703;DHT22;12030;50.376;8.762;2023-09-07T10:41:58;25.40;99.90
23703;DHT22;12030;50.376;8.762;2023-09-07T10:44:27;25.40;99.90
23703;DHT22;12030;50.376;8.762;2023-09-07T10:46:54;25.50;99.90
23703;DHT22;12030;50.376;8.762;2023-09-07T10:49:19;25.60;99.90
23703;DHT22;12030;50.376;8.762;2023-09-07T10:51:46;25.60;99.90
23703;DHT22;12030;50.376;8.762;2023-09-07T10:54:23;25.60;99.90
23703;DHT22;12030;50.376;8.762;2023-09-07T10:56:50;25.70;99.90
23703;DHT22;12030;50.376;8.762;2023-09-07T10:59:16;25.80;99.90
23703;DHT22;12030;50.376;8.762;2023-09-07T11:01:44;25.90;99.90
23703;DHT22;12030;50.376;8.762;2023-09-07T11:04:10;26.00;99.90
23703;DHT22;12030;50.376;8.762;2023-09-07T11:06:37;26.00;99.90
23703;DHT22;12030;50.376;8.762;2023-09-07T11:09:04;26.10;99.90
23703;DHT22;12030;50.376;8.762;2023-09-07T11:11:31;26.10;99.90
23703;DHT22;12030;50.376;8.762;2023-09-07T11:13:58;26.20;99.90
23703;DHT22;12030;50.376;8.762;2023-09-07T11:16:25;26.20;99.40
23703;DHT22;12030;50.376;8.762;2023-09-07T11:18:52;26.30;99.90
23703;DHT22;12030;50.376;8.762;2023-09-07T11:21:20;26.50;99.90
23703;DHT22;12030;50.376;8.762;2023-09-07T11:23:45;26.50;99.10
23703;DHT22;12030;50.376;8.762;2023-09-07T11:26:11;26.60;99.80
23703;DHT22;12030;50.376;8.762;2023-09-07T11:28:37;26.60;98.90
23703;DHT22;12030;50.376;8.762;2023-09-07T11:31:03;26.70;99.90
23703;DHT22;12030;50.376;8.762;2023-09-07T11:33:32;26.70;99.90
23703;DHT22;12030;50.376;8.762;2023-09-07T11:35:57;26.80;99.90
23703;DHT22;12030;50.376;8.762;2023-09-07T11:38:23;26.80;99.90
23703;DHT22;12030;50.376;8.762;2023-09-07T11:40:48;26.90;99.90
23703;DHT22;12030;50.376;8.762;2023-09-07T11:43:15;27.00;99.90
23703;DHT22;12030;50.376;8.762;2023-09-07T11:45:42;27.00;99.90
23703;DHT22;12030;50.376;8.762;2023-09-07T11:48:09;27.10;98.80
23703;DHT22;12030;50.376;8.762;2023-09-07T11:50:35;27.10;97.40
23703;DHT22;12030;50.376;8.762;2023-09-07T11:53:01;27.20;99.50
23703;DHT22;12030;50.376;8.762;2023-09-07T11:55:27;27.30;97.30
23703;DHT22;12030;50.376;8.762;2023-09-07T11:57:53;27.40;98.00
23703;DHT22;12030;50.376;8.762;2023-09-07T12:00:18;27.50;98.70
23703;DHT22;12030;50.376;8.762;2023-09-07T12:02:44;27.50;98.40
23703;DHT22;12030;50.376;8.762;2023-09-07T12:05:10;27.50;97.80
23703;DHT22;12030;50.376;8.762;2023-09-07T12:07:39;27.60;98.60
23703;DHT22;12030;50.376;8.762;2023-09-07T12:10:05;27.70;97.20
23703;DHT22;12030;50.376;8.762;2023-09-07T12:12:31;27.70;96.50
23703;DHT22;12030;50.376;8.762;2023-09-07T12:14:56;27.70;95.20
23703;DHT22;12030;50.376;8.762;2023-09-07T12:17:23;27.80;97.70
23703;DHT22;12030;50.376;8.762;2023-09-07T12:19:50;27.80;96.70
23703;DHT22;12030;50.376;8.762;2023-09-07T12:22:15;27.90;97.80
23703;DHT22;12030;50.376;8.762;2023-09-07T12:24:41;28.00;97.70
23703;DHT22;12030;50.376;8.762;2023-09-07T12:27:06;28.00;96.20
23703;DHT22;12030;50.376;8.762;2023-09-07T12:29:32;28.10;97.20
23703;DHT22;12030;50.376;8.762;2023-09-07T12:31:58;28.20;97.30
23703;DHT22;12030;50.376;8.762;2023-09-07T12:34:24;28.20;93.90
23703;DHT22;12030;50.376;8.762;2023-09-07T12:36:50;28.30;95.40
23703;DHT22;12030;50.376;8.762;2023-09-07T12:39:15;28.50;95.70
23703;DHT22;12030;50.376;8.762;2023-09-07T12:41:41;28.50;94.50
23703;DHT22;12030;50.376;8.762;2023-09-07T12:44:07;28.50;96.00
23703;DHT22;12030;50.376;8.762;2023-09-07T12:46:33;28.60;95.20
23703;DHT22;12030;50.376;8.762;2023-09-07T12:48:58;28.70;95.90
23703;DHT22;12030;50.376;8.762;2023-09-07T12:51:24;28.80;94.80
23703;DHT22;12030;50.376;8.762;2023-09-07T12:53:49;28.80;94.00
23703;DHT22;12030;50.376;8.762;2023-09-07T12:56:15;28.90;95.50
23703;DHT22;12030;50.376;8.762;2023-09-07T12:58:41;28.90;94.00
23703;DHT22;12030;50.376;8.762;2023-09-07T13:01:08;28.90;94.40
23703;DHT22;12030;50.376;8.762;2023-09-07T13:03:36;29.10;93.10
23703;DHT22;12030;50.376;8.762;2023-09-07T13:06:02;29.10;93.70
23703;DHT22;12030;50.376;8.762;2023-09-07T13:08:28;29.20;93.40
23703;DHT22;12030;50.376;8.762;2023-09-07T13:10:55;29.20;95.70
23703;DHT22;12030;50.376;8.762;2023-09-07T13:13:21;29.30;93.70
23703;DHT22;12030;50.376;8.762;2023-09-07T13:15:47;29.30;92.80
23703;DHT22;12030;50.376;8.762;2023-09-07T13:18:13;29.40;91.80
23703;DHT22;12030;50.376;8.762;2023-09-07T13:20:39;29.60;91.50
23703;DHT22;12030;50.376;8.762;2023-09-07T13:23:04;29.60;92.30
23703;DHT22;12030;50.376;8.762;2023-09-07T13:25:30;29.70;93.10
23703;DHT22;12030;50.376;8.762;2023-09-07T13:27:55;29.80;92.40
23703;DHT22;12030;50.376;8.762;2023-09-07T13:30:21;29.80;90.30
23703;DHT22;12030;50.376;8.762;2023-09-07T13:32:46;29.90;90.60
23703;DHT22;12030;50.376;8.762;2023-09-07T13:35:12;30.00;90.00
23703;DHT22;12030;50.376;8.762;2023-09-07T13:37:38;30.10;90.70
23703;DHT22;12030;50.376;8.762;2023-09-07T13:40:04;30.10;90.20
23703;DHT22;12030;50.376;8.762;2023-09-07T13:42:30;30.20;88.10
23703;DHT22;12030;50.376;8.762;2023-09-07T13:44:55;30.20;87.30
23703;DHT22;12030;50.376;8.762;2023-09-07T13:47:21;30.30;86.70
23703;DHT22;12030;50.376;8.762;2023-09-07T13:49:47;30.40;89.80
23703;DHT22;12030;50.376;8.762;2023-09-07T13:52:13;30.60;90.90
23703;DHT22;12030;50.376;8.762;2023-09-07T13:54:39;30.60;86.40
23703;DHT22;12030;50.376;8.762;2023-09-07T13:57:04;30.60;89.70
23703;DHT22;12030;50.376;8.762;2023-09-07T13:59:30;30.70;89.70
23703;DHT22;12030;50.376;8.762;2023-09-07T14:01:58;30.80;90.60
23703;DHT22;12030;50.376;8.762;2023-09-07T14:04:23;30.90;83.80
23703;DHT22;12030;50.376;8.762;2023-09-07T14:06:49;30.90;83.00
23703;DHT22;12030;50.376;8.762;2023-09-07T14:09:14;31.10;83.00
23703;DHT22;12030;50.376;8.762;2023-09-07T14:11:40;31.20;84.10
23703;DHT22;12030;50.376;8.762;2023-09-07T14:14:05;31.20;84.20
23703;DHT22;12030;50.376;8.762;2023-09-07T14:16:31;31.30;82.10
23703;DHT22;12030;50.376;8.762;2023-09-07T14:18:57;31.30;83.10
23703;DHT22;12030;50.376;8.762;2023-09-07T14:21:22;31.30;84.10
23703;DHT22;12030;50.376;8.762;2023-09-07T14:23:48;31.30;83.40
23703;DHT22;12030;50.376;8.762;2023-09-07T14:26:13;31.30;84.80
23703;DHT22;12030;50.376;8.762;2023-09-07T14:28:39;31.40;83.70
23703;DHT22;12030;50.376;8.762;2023-09-07T14:31:05;31.50;85.10
23703;DHT22;12030;50.376;8.762;2023-09-07T14:33:33;31.60;84.10
23703;DHT22;12030;50.376;8.762;2023-09-07T14:35:59;31.60;86.40
23703;DHT22;12030;50.376;8.762;2023-09-07T14:38:24;31.60;81.80
23703;DHT22;12030;50.376;8.762;2023-09-07T14:40:52;31.70;86.40
23703;DHT22;12030;50.376;8.762;2023-09-07T14:43:21;31.70;82.40
23703;DHT22;12030;50.376;8.762;2023-09-07T14:45:47;31.60;84.50
23703;DHT22;12030;50.376;8.762;2023-09-07T14:48:12;31.80;83.20
23703;DHT22;12030;50.376;8.762;2023-09-07T14:50:38;31.90;81.60
23703;DHT22;12030;50.376;8.762;2023-09-07T14:53:04;31.90;79.70
23703;DHT22;12030;50.376;8.762;2023-09-07T14:55:29;31.90;83.20
23703;DHT22;12030;50.376;8.762;2023-09-07T14:57:55;31.80;83.60
23703;DHT22;12030;50.376;8.762;2023-09-07T15:00:20;31.70;80.20
23703;DHT22;12030;50.376;8.762;2023-09-07T15:02:48;31.80;78.70
23703;DHT22;12030;50.376;8.762;2023-09-07T15:05:13;31.80;82.00
23703;DHT22;12030;50.376;8.762;2023-09-07T15:07:39;31.70;83.30
23703;DHT22;12030;50.376;8.762;2023-09-07T15:10:04;31.70;81.40
23703;DHT22;12030;50.376;8.762;2023-09-07T15:12:30;31.80;80.00
23703;DHT22;12030;50.376;8.762;2023-09-07T15:14:55;31.90;81.70
23703;DHT22;12030;50.376;8.762;2023-09-07T15:17:21;31.90;82.50
23703;DHT22;12030;50.376;8.762;2023-09-07T15:19:46;31.90;78.80
23703;DHT22;12030;50.376;8.762;2023-09-07T15:22:12;32.10;79.90
23703;DHT22;12030;50.376;8.762;2023-09-07T15:24:38;32.10;79.10